Time;durP1;ratioP1;P1;durP2;ratioP2;P2;SDS_P1;SDS_P2;PMS_P1;PMS_P2;Temp;Humidity;BMP_temperature;BMP_pressure;BME280_temperature;BME280_humidity;BME280_pressure;Samples;Min_cycle;Max_cycle;Signal;HPM_P1;HPM_P2
2020/12/01 00:02:24;;;;;;;20.05;2.60;;;7.70;99.90;;;;;;5112793;28;20062;-45
2020/12/01 00:04:50;;;;;;;12.98;2.60;;;7.60;99.90;;;;;;5113205;28;20031;-45
2020/12/01 00:07:16;;;;;;;6.68;2.00;;;7.60;99.90;;;;;;5113079;28;20063;-45
2020/12/01 00:09:42;;;;;;;9.73;2.03;;;7.60;99.90;;;;;;5112919;28;20039;-46
2020/12/01 00:12:07;;;;;;;11.55;2.00;;;7.60;99.90;;;;;;5109178;27;20059;-45
2020/12/01 00:14:33;;;;;;;10.70;2.67;;;7.60;99.90;;;;;;5108533;28;20051;-46
2020/12/01 00:16:59;;;;;;;15.80;2.65;;;7.60;99.90;;;;;;5112798;28;20039;-45
2020/12/01 00:19:24;;;;;;;12.70;3.17;;;7.60;99.90;;;;;;5112200;28;20408;-46
2020/12/01 00:21:50;;;;;;;11.80;2.13;;;7.60;99.90;;;;;;5112616;28;20081;-45
2020/12/01 00:24:16;;;;;;;10.20;2.45;;;7.70;99.90;;;;;;5112114;28;20081;-46
2020/12/01 00:26:42;;;;;;;5.07;2.08;;;7.80;99.90;;;;;;5112620;28;20032;-45
2020/12/01 00:29:08;;;;;;;9.40;2.67;;;7.80;99.90;;;;;;5111522;27;20027;-45
2020/12/01 00:31:38;;;;;;;15.73;2.45;;;7.70;99.90;;;;;;5112257;28;20100;-45
2020/12/01 00:34:05;;;;;;;8.30;2.28;;;7.60;99.90;;;;;;5111909;28;20031;-45
2020/12/01 00:36:31;;;;;;;11.68;2.35;;;7.60;99.90;;;;;;5111039;28;20414;-44
2020/12/01 00:38:56;;;;;;;12.23;2.75;;;7.50;99.90;;;;;;5110875;28;20054;-45
2020/12/01 00:41:22;;;;;;;9.82;2.42;;;7.40;99.90;;;;;;5111937;28;20085;-45
2020/12/01 00:43:48;;;;;;;9.30;2.30;;;7.40;99.90;;;;;;5107640;28;20073;-45
2020/12/01 00:46:13;;;;;;;12.27;2.00;;;7.40;99.90;;;;;;5112077;28;20156;-45
2020/12/01 00:48:39;;;;;;;10.10;2.75;;;7.40;99.90;;;;;;5111184;28;20051;-45
2020/12/01 00:51:05;;;;;;;9.18;2.78;;;7.30;99.90;;;;;;5111613;28;20704;-45
2020/12/01 00:53:31;;;;;;;14.00;2.63;;;7.20;99.90;;;;;;5111280;28;20028;-45
2020/12/01 00:55:56;;;;;;;14.30;3.45;;;7.10;99.90;;;;;;5111338;28;20028;-45
2020/12/01 00:58:22;;;;;;;15.88;2.80;;;7.00;99.90;;;;;;5102252;28;20818;-44
2020/12/01 01:00:48;;;;;;;12.25;2.80;;;7.00;99.90;;;;;;5090932;28;20465;-45
2020/12/01 01:03:15;;;;;;;6.93;2.40;;;6.90;99.90;;;;;;5095707;28;20020;-45
2020/12/01 01:05:40;;;;;;;8.93;2.10;;;6.80;99.90;;;;;;5111362;28;20019;-45
2020/12/01 01:08:06;;;;;;;11.73;2.65;;;6.80;99.90;;;;;;5110879;28;20530;-45
2020/12/01 01:10:33;;;;;;;10.35;2.40;;;6.70;99.90;;;;;;5111480;28;20057;-45
2020/12/01 01:13:00;;;;;;;16.88;3.20;;;6.70;99.90;;;;;;5110002;28;20032;-45
2020/12/01 01:15:32;;;;;;;8.40;2.47;;;6.60;99.90;;;;;;5102394;27;20040;-45
2020/12/01 01:17:59;;;;;;;12.73;2.85;;;6.60;99.90;;;;;;5096754;28;20040;-44
2020/12/01 01:20:26;;;;;;;18.20;2.65;;;6.50;99.90;;;;;;5109882;28;20031;-45
2020/12/01 01:22:52;;;;;;;11.30;2.65;;;6.50;99.90;;;;;;5110261;28;20520;-45
2020/12/01 01:25:18;;;;;;;17.33;2.95;;;6.50;99.90;;;;;;5109943;28;20036;-44
2020/12/01 01:27:45;;;;;;;13.07;3.00;;;6.60;99.90;;;;;;5109062;28;20437;-44
2020/12/01 01:30:14;;;;;;;12.18;2.92;;;6.50;99.90;;;;;;5100994;28;20053;-45
2020/12/01 01:32:39;;;;;;;13.57;3.10;;;6.60;99.90;;;;;;5108888;28;20042;-52
2020/12/01 01:35:05;;;;;;;21.27;2.97;;;6.60;99.90;;;;;;5110171;28;20454;-45
2020/12/01 01:37:31;;;;;;;10.75;2.75;;;6.50;99.90;;;;;;5109947;28;20063;-44
2020/12/01 01:39:56;;;;;;;13.05;2.45;;;6.50;99.90;;;;;;5110442;28;20043;-44
2020/12/01 01:42:22;;;;;;;11.52;2.67;;;6.40;99.90;;;;;;5110233;28;20078;-44
2020/12/01 01:44:48;;;;;;;14.30;2.65;;;6.40;99.90;;;;;;5093171;28;20503;-44
2020/12/01 01:47:13;;;;;;;13.82;2.15;;;6.30;99.90;;;;;;5090456;28;20454;-44
2020/12/01 01:49:41;;;;;;;13.75;2.60;;;6.20;99.90;;;;;;5110264;28;20075;-44
2020/12/01 01:52:15;;;;;;;14.55;2.70;;;6.10;99.90;;;;;;5110217;28;20031;-44
2020/12/01 01:54:44;;;;;;;8.93;2.58;;;6.10;99.90;;;;;;5109895;28;20063;-44
2020/12/01 01:57:11;;;;;;;9.43;2.33;;;6.10;99.90;;;;;;5110096;28;20055;-44
2020/12/01 01:59:38;;;;;;;16.92;2.40;;;6.10;99.90;;;;;;5096035;28;20036;-45
2020/12/01 02:02:04;;;;;;;13.32;3.28;;;6.10;99.90;;;;;;5089647;28;20028;-44
2020/12/01 02:04:31;;;;;;;12.50;2.25;;;6.00;99.90;;;;;;5104583;28;20031;-44
2020/12/01 02:07:01;;;;;;;8.32;2.55;;;6.00;99.90;;;;;;5109686;28;20165;-44
2020/12/01 02:09:36;;;;;;;11.60;2.50;;;6.00;99.90;;;;;;5110143;28;20030;-44
2020/12/01 02:12:04;;;;;;;12.73;2.38;;;6.00;99.90;;;;;;5109580;28;20031;-44
2020/12/01 02:14:36;;;;;;;9.30;1.92;;;6.00;99.90;;;;;;5097602;28;20028;-44
2020/12/01 02:17:37;;;;;;;15.50;2.67;;;6.00;99.90;;;;;;5089210;28;20044;-44
2020/12/01 02:20:19;;;;;;;17.08;2.22;;;6.00;99.90;;;;;;5089767;28;20032;-44
2020/12/01 02:22:54;;;;;;;16.80;2.97;;;5.90;99.90;;;;;;5089854;28;20526;-44
2020/12/01 02:25:21;;;;;;;19.25;3.25;;;5.80;99.90;;;;;;5108367;28;20023;-44
2020/12/01 02:27:52;;;;;;;13.23;2.22;;;5.90;99.90;;;;;;5109587;28;20031;-44
2020/12/01 02:30:18;;;;;;;15.25;2.45;;;5.80;99.90;;;;;;5091560;28;20020;-45
2020/12/01 02:32:44;;;;;;;8.32;2.35;;;5.70;99.90;;;;;;5088154;28;20440;-44
2020/12/01 02:35:10;;;;;;;13.52;2.70;;;5.70;99.90;;;;;;5090147;28;20032;-44
2020/12/01 02:37:37;;;;;;;14.35;2.33;;;5.80;99.90;;;;;;5092282;28;20154;-44
2020/12/01 02:40:09;;;;;;;8.65;2.38;;;5.70;99.90;;;;;;5110065;28;20114;-44
2020/12/01 02:42:35;;;;;;;14.35;2.60;;;5.70;99.90;;;;;;5091592;28;20075;-44
2020/12/01 02:45:01;;;;;;;16.20;2.88;;;5.70;99.90;;;;;;5089804;28;20094;-44
2020/12/01 02:47:27;;;;;;;14.52;2.28;;;5.60;99.90;;;;;;5108210;27;20046;-44
2020/12/01 02:49:53;;;;;;;9.45;2.28;;;5.70;99.90;;;;;;5110466;28;20047;-44
2020/12/01 02:52:20;;;;;;;13.38;2.83;;;5.60;99.90;;;;;;5110202;28;20115;-45
2020/12/01 02:54:47;;;;;;;15.93;2.45;;;5.60;99.90;;;;;;5109494;28;20019;-44
2020/12/01 02:57:13;;;;;;;18.27;2.55;;;5.60;99.90;;;;;;5110720;28;20058;-44
2020/12/01 02:59:39;;;;;;;23.80;3.67;;;5.60;99.90;;;;;;5109971;28;20035;-45
2020/12/01 03:02:05;;;;;;;11.88;3.03;;;5.60;99.90;;;;;;5109054;28;20076;-44
2020/12/01 03:04:31;;;;;;;9.98;2.40;;;5.60;99.90;;;;;;5109307;28;20039;-44
2020/12/01 03:06:56;;;;;;;17.17;2.45;;;5.50;99.90;;;;;;5109280;28;20035;-45
2020/12/01 03:09:22;;;;;;;17.17;2.75;;;5.50;99.90;;;;;;5109523;28;20115;-44
2020/12/01 03:11:49;;;;;;;15.65;2.50;;;5.50;99.90;;;;;;5108977;28;20035;-44
2020/12/01 03:14:16;;;;;;;15.25;2.72;;;5.50;99.90;;;;;;5109156;28;20757;-44
2020/12/01 03:16:41;;;;;;;14.23;3.22;;;5.50;99.90;;;;;;5109815;28;20032;-44
2020/12/01 03:19:07;;;;;;;9.40;2.55;;;5.50;99.90;;;;;;5110236;28;20758;-46
2020/12/01 03:21:33;;;;;;;7.93;1.75;;;5.40;99.90;;;;;;5110299;28;20031;-44
2020/12/01 03:23:59;;;;;;;16.65;2.95;;;5.40;99.90;;;;;;5109923;28;20036;-44
2020/12/01 03:26:24;;;;;;;12.15;3.13;;;5.40;99.90;;;;;;5110257;28;20036;-44
2020/12/01 03:28:50;;;;;;;15.10;2.67;;;5.40;99.90;;;;;;5110037;28;20661;-45
2020/12/01 03:31:19;;;;;;;15.85;2.88;;;5.30;99.90;;;;;;5109640;28;20042;-44
2020/12/01 03:33:47;;;;;;;13.73;2.60;;;5.30;99.90;;;;;;5109925;28;20031;-44
2020/12/01 03:36:13;;;;;;;19.70;3.70;;;5.20;99.90;;;;;;5110176;28;20434;-45
2020/12/01 03:38:38;;;;;;;14.13;2.53;;;5.20;99.90;;;;;;5109859;28;20048;-44
2020/12/01 03:41:04;;;;;;;10.95;2.22;;;5.20;99.90;;;;;;5109517;28;20036;-44
2020/12/01 03:43:30;;;;;;;10.52;2.63;;;5.10;99.90;;;;;;5109653;28;20049;-44
2020/12/01 03:45:56;;;;;;;26.00;3.13;;;5.10;99.90;;;;;;5113206;28;20028;-44
2020/12/01 03:48:22;;;;;;;16.05;2.50;;;5.10;99.90;;;;;;5113576;28;20035;-44
2020/12/01 03:50:48;;;;;;;11.38;2.53;;;5.10;99.90;;;;;;5113616;28;20042;-44
2020/12/01 03:53:13;;;;;;;11.70;2.67;;;5.00;99.90;;;;;;5113665;28;20050;-44
2020/12/01 03:55:39;;;;;;;15.10;2.85;;;5.00;99.90;;;;;;5113519;28;20342;-44
2020/12/01 03:58:05;;;;;;;12.43;3.08;;;4.90;99.90;;;;;;5113753;28;20036;-45
2020/12/01 04:00:31;;;;;;;15.15;2.92;;;4.90;99.90;;;;;;5113240;28;20035;-44
2020/12/01 04:02:57;;;;;;;7.47;2.35;;;4.90;99.90;;;;;;5113531;28;20102;-44
2020/12/01 04:05:26;;;;;;;16.98;2.90;;;4.90;99.90;;;;;;5113585;28;20042;-44
2020/12/01 04:07:52;;;;;;;20.80;2.63;;;5.00;99.90;;;;;;5113448;28;20039;-44
2020/12/01 04:10:19;;;;;;;12.27;2.45;;;5.00;99.90;;;;;;5113316;28;20057;-44
2020/12/01 04:12:44;;;;;;;19.13;3.25;;;5.00;99.90;;;;;;5113278;28;20354;-44
2020/12/01 04:15:11;;;;;;;13.93;2.47;;;5.00;99.90;;;;;;5113373;28;20028;-44
2020/12/01 04:17:37;;;;;;;16.88;3.13;;;4.90;99.90;;;;;;5111891;28;20085;-44
2020/12/01 04:20:05;;;;;;;13.45;3.03;;;4.90;99.90;;;;;;5112181;28;20973;-44
2020/12/01 04:22:31;;;;;;;11.50;2.92;;;4.90;99.90;;;;;;5111350;28;20070;-44
2020/12/01 04:24:56;;;;;;;13.55;2.92;;;4.80;99.90;;;;;;5112930;28;20572;-44
2020/12/01 04:27:22;;;;;;;10.18;2.38;;;4.90;99.90;;;;;;5112688;28;20031;-44
2020/12/01 04:29:48;;;;;;;14.65;2.75;;;4.80;99.90;;;;;;5112645;28;20039;-44
2020/12/01 04:32:13;;;;;;;11.75;2.70;;;4.80;99.90;;;;;;5111314;28;20032;-44
2020/12/01 04:34:39;;;;;;;9.70;2.55;;;4.70;99.90;;;;;;5113082;28;20028;-44
2020/12/01 04:37:06;;;;;;;11.82;2.20;;;4.80;99.90;;;;;;5112443;28;20055;-44
2020/12/01 04:39:32;;;;;;;10.80;3.25;;;4.80;99.90;;;;;;5112622;28;20036;-44
2020/12/01 04:41:58;;;;;;;10.60;3.67;;;4.80;99.90;;;;;;5112115;28;20110;-44
2020/12/01 04:44:33;;;;;;;18.20;2.53;;;4.80;99.90;;;;;;5112479;28;20386;-44
2020/12/01 04:47:05;;;;;;;17.83;2.38;;;4.70;99.90;;;;;;5112404;28;20039;-44
2020/12/01 04:49:37;;;;;;;9.00;2.20;;;4.70;99.90;;;;;;5112952;28;20503;-44
2020/12/01 04:52:25;;;;;;;8.57;1.52;;;4.70;99.90;;;;;;5112299;28;20035;-44
2020/12/01 04:55:06;;;;;;;9.25;2.38;;;4.60;99.90;;;;;;5112252;28;20027;-44
2020/12/01 04:58:02;;;;;;;10.63;2.17;;;4.60;99.90;;;;;;5112072;28;20419;-44
2020/12/01 05:00:57;;;;;;;12.77;2.20;;;4.60;99.90;;;;;;5112376;28;20075;-44
2020/12/01 05:03:47;;;;;;;21.20;2.55;;;4.60;99.90;;;;;;5112089;28;20114;-44
2020/12/01 05:09:36;;;;;;;20.17;3.20;;;4.50;99.90;;;;;;5112765;28;20053;-44
2020/12/01 05:12:04;;;;;;;9.95;2.38;;;4.40;99.90;;;;;;5112006;28;20027;-44
2020/12/01 05:14:51;;;;;;;17.20;2.63;;;4.40;99.90;;;;;;5112175;28;20119;-44
2020/12/01 05:17:50;;;;;;;14.55;2.45;;;4.30;99.90;;;;;;5111535;28;20039;-44
2020/12/01 05:20:16;;;;;;;9.63;2.35;;;4.40;99.90;;;;;;5111888;28;20028;-45
2020/12/01 05:22:57;;;;;;;9.75;2.42;;;4.50;99.90;;;;;;5112172;28;20480;-44
2020/12/01 05:25:31;;;;;;;17.40;3.42;;;4.50;99.90;;;;;;5112108;28;20031;-44
2020/12/01 05:28:08;;;;;;;7.32;2.00;;;4.60;99.90;;;;;;5111442;28;20577;-44
2020/12/01 05:30:35;;;;;;;9.98;2.08;;;4.60;99.90;;;;;;5111026;28;20071;-44
2020/12/01 05:33:15;;;;;;;14.68;2.10;;;4.50;99.90;;;;;;5111601;28;20085;-45
2020/12/01 05:35:41;;;;;;;13.05;2.83;;;4.50;99.90;;;;;;5111258;28;20035;-45
2020/12/01 05:38:13;;;;;;;14.68;3.08;;;4.50;99.90;;;;;;5111189;28;20778;-44
2020/12/01 05:40:53;;;;;;;14.27;1.98;;;4.40;99.90;;;;;;5111502;28;20036;-45
2020/12/01 05:43:28;;;;;;;11.95;2.28;;;4.30;99.90;;;;;;5111537;28;20574;-44
2020/12/01 05:46:17;;;;;;;11.02;2.38;;;4.30;99.90;;;;;;5110944;28;20100;-45
2020/12/01 05:48:57;;;;;;;11.77;2.20;;;4.30;99.90;;;;;;5093712;27;20486;-44
2020/12/01 05:51:34;;;;;;;9.60;2.33;;;4.30;99.90;;;;;;5089972;28;20486;-44
2020/12/01 05:53:59;;;;;;;9.90;2.33;;;4.30;99.90;;;;;;5090063;28;20024;-44
2020/12/01 05:56:28;;;;;;;8.70;2.42;;;4.40;99.90;;;;;;5090031;28;20186;-44
2020/12/01 05:58:59;;;;;;;14.95;2.33;;;4.30;99.90;;;;;;5107558;28;20191;-44
2020/12/01 06:01:25;;;;;;;12.00;2.22;;;4.30;99.90;;;;;;5103929;28;20516;-43
2020/12/01 06:04:10;;;;;;;7.78;2.30;;;4.20;99.90;;;;;;5093963;27;20107;-44
2020/12/01 06:07:00;;;;;;;9.27;2.03;;;4.20;99.90;;;;;;5107997;28;20035;-44
2020/12/01 06:09:53;;;;;;;16.70;2.80;;;4.20;99.90;;;;;;5109199;28;20546;-44
2020/12/01 06:12:29;;;;;;;12.60;2.30;;;4.20;99.90;;;;;;5105616;28;20762;-44
2020/12/01 06:15:11;;;;;;;14.50;2.42;;;4.30;99.90;;;;;;5109999;28;20028;-43
2020/12/01 06:17:42;;;;;;;8.20;1.83;;;4.20;99.90;;;;;;5106401;27;20031;-44
2020/12/01 06:20:25;;;;;;;11.48;2.40;;;4.20;99.90;;;;;;5089368;28;20023;-44
2020/12/01 06:23:09;;;;;;;12.38;1.80;;;4.20;99.90;;;;;;5098253;28;20024;-44
2020/12/01 06:25:35;;;;;;;;;;;4.20;99.90;;;;;;5109761;28;20439;-44
2020/12/01 06:28:21;;;;;;;15.18;2.55;;;4.20;99.90;;;;;;5109757;28;19908;-44
2020/12/01 06:30:56;;;;;;;10.02;2.10;;;4.20;99.90;;;;;;5109330;28;20089;-43
2020/12/01 06:33:43;;;;;;;11.57;2.10;;;4.10;99.90;;;;;;5104512;27;20404;-44
2020/12/01 06:36:40;;;;;;;13.55;2.03;;;4.20;99.90;;;;;;5088659;28;20086;-44
2020/12/01 06:39:30;;;;;;;10.38;2.28;;;4.20;99.90;;;;;;5108228;28;20040;-44
2020/12/01 06:42:28;;;;;;;9.40;2.25;;;4.10;99.90;;;;;;5107595;28;20035;-44
2020/12/01 06:45:05;;;;;;;14.35;2.47;;;4.10;99.90;;;;;;5109449;28;20032;-44
2020/12/01 06:47:32;;;;;;;12.88;2.65;;;4.10;99.90;;;;;;5109191;28;20038;-44
2020/12/01 06:50:09;;;;;;;19.50;2.47;;;4.10;99.90;;;;;;5089740;28;20462;-48
2020/12/01 06:52:35;;;;;;;11.05;2.35;;;4.10;99.90;;;;;;5095575;28;20042;-44
2020/12/01 06:55:00;;;;;;;11.45;2.47;;;4.10;99.90;;;;;;5109274;28;20028;-44
2020/12/01 06:57:26;;;;;;;9.85;2.40;;;4.10;99.90;;;;;;5105633;28;20075;-44
2020/12/01 06:59:52;;;;;;;9.43;2.40;;;4.00;99.90;;;;;;5095604;28;20028;-44
2020/12/01 07:02:21;;;;;;;21.90;2.50;;;4.00;99.90;;;;;;5093703;28;20032;-44
2020/12/01 07:04:47;;;;;;;13.07;2.83;;;4.00;99.90;;;;;;5096812;28;20053;-44
2020/12/01 07:07:29;;;;;;;8.93;1.95;;;4.00;99.90;;;;;;5093544;28;20032;-44
2020/12/01 07:09:55;;;;;;;16.60;3.10;;;4.10;99.90;;;;;;5086384;28;20088;-44
2020/12/01 07:12:30;;;;;;;12.70;2.40;;;4.00;99.90;;;;;;5091062;28;20122;-45
2020/12/01 07:15:13;;;;;;;16.00;2.35;;;4.00;99.90;;;;;;5091599;28;20043;-44
2020/12/01 07:17:46;;;;;;;10.02;2.83;;;4.10;99.90;;;;;;5098689;28;20552;-44
2020/12/01 07:20:33;;;;;;;7.47;1.92;;;4.00;99.90;;;;;;5101546;28;20046;-44
2020/12/01 07:23:32;;;;;;;8.07;2.30;;;4.00;99.90;;;;;;5103665;28;20035;-45
2020/12/01 07:26:16;;;;;;;15.93;2.38;;;4.00;99.90;;;;;;5108248;28;20023;-44
2020/12/01 07:28:47;;;;;;;15.85;3.75;;;4.00;99.90;;;;;;5108527;28;20038;-44
2020/12/01 07:31:32;;;;;;;21.77;2.78;;;4.00;99.90;;;;;;5113000;27;20038;-44
2020/12/01 07:34:06;;;;;;;17.38;3.00;;;4.00;99.90;;;;;;5110335;27;20271;-44
2020/12/01 07:36:42;;;;;;;6.32;2.22;;;3.90;99.90;;;;;;5107647;28;20070;-44
2020/12/01 07:39:26;;;;;;;11.55;2.08;;;3.90;99.90;;;;;;5107801;27;20089;-44
2020/12/01 07:41:55;;;;;;;10.85;2.15;;;3.90;99.90;;;;;;5103877;28;20035;-45
2020/12/01 07:44:24;;;;;;;13.95;2.50;;;4.00;99.90;;;;;;5103184;27;20032;-45
2020/12/01 07:47:15;;;;;;;16.05;2.90;;;3.90;99.90;;;;;;5097958;27;20339;-45
2020/12/01 07:49:54;;;;;;;11.65;2.40;;;3.90;99.90;;;;;;5096560;27;20458;-44
2020/12/01 07:52:28;;;;;;;22.73;2.60;;;4.00;99.90;;;;;;5072312;27;20072;-44
2020/12/01 07:55:26;;;;;;;13.75;3.30;;;4.00;99.90;;;;;;5092047;27;20054;-44
2020/12/01 07:58:04;;;;;;;9.73;1.80;;;3.90;99.90;;;;;;5098046;27;20039;-44
2020/12/01 08:00:31;;;;;;;8.30;1.65;;;3.90;99.90;;;;;;5103011;27;20478;-45
2020/12/01 08:03:02;;;;;;;14.70;2.85;;;3.90;99.90;;;;;;5094407;28;20028;-44
2020/12/01 08:05:28;;;;;;;13.20;2.28;;;3.90;99.90;;;;;;5093616;28;20032;-44
2020/12/01 08:07:57;;;;;;;5.00;1.70;;;4.00;99.90;;;;;;5095484;27;20032;-45
2020/12/01 08:10:26;;;;;;;16.98;2.45;;;3.90;99.90;;;;;;5090158;27;21316;-44
2020/12/01 08:12:59;;;;;;;10.45;2.28;;;4.00;99.90;;;;;;5095146;27;20102;-44
2020/12/01 08:15:26;;;;;;;12.25;2.65;;;4.00;99.90;;;;;;5091789;28;20665;-45
2020/12/01 08:17:53;;;;;;;15.95;2.85;;;3.90;99.90;;;;;;5089216;28;20075;-44
2020/12/01 08:20:25;;;;;;;11.20;2.20;;;4.00;99.90;;;;;;5086917;27;20055;-44
2020/12/01 08:23:04;;;;;;;11.88;2.45;;;4.00;99.90;;;;;;5089615;28;20454;-44
2020/12/01 08:25:31;;;;;;;11.10;2.10;;;4.00;99.90;;;;;;5092564;27;20039;-44
2020/12/01 08:28:19;;;;;;;12.52;2.60;;;4.00;99.90;;;;;;5089910;27;20032;-44
2020/12/01 08:31:04;;;;;;;11.25;2.00;;;4.00;99.90;;;;;;5089669;28;20030;-45
2020/12/01 08:33:48;;;;;;;20.48;2.92;;;4.10;99.90;;;;;;5089626;27;20035;-44
2020/12/01 08:36:52;;;;;;;15.38;2.35;;;4.10;99.90;;;;;;5088883;27;21780;-44
2020/12/01 08:39:28;;;;;;;11.02;2.15;;;4.10;99.90;;;;;;5088051;28;20127;-44
2020/12/01 08:42:07;;;;;;;13.77;2.53;;;4.20;99.90;;;;;;5092464;27;20128;-44
2020/12/01 08:44:42;;;;;;;9.23;2.00;;;4.20;99.90;;;;;;5092019;27;20036;-45
2020/12/01 08:47:08;;;;;;;7.57;2.45;;;4.30;99.90;;;;;;5095827;27;20055;-44
2020/12/01 08:49:44;;;;;;;15.93;2.70;;;4.30;99.90;;;;;;5092786;27;20040;-44
2020/12/01 08:52:36;;;;;;;12.63;2.30;;;4.30;99.90;;;;;;5107729;28;20455;-47
2020/12/01 08:55:27;;;;;;;13.73;2.97;;;4.40;99.90;;;;;;5097353;28;20408;-44
2020/12/01 08:58:27;;;;;;;16.52;2.40;;;4.40;99.90;;;;;;5090184;28;20043;-45
2020/12/01 09:01:02;;;;;;;14.95;2.10;;;4.40;99.90;;;;;;5096000;27;20038;-44
2020/12/01 09:03:30;;;;;;;13.15;3.17;;;4.50;99.90;;;;;;5105421;27;20032;-44
2020/12/01 09:05:57;;;;;;;14.15;2.45;;;4.50;99.90;;;;;;5094209;27;20237;-43
2020/12/01 09:14:01;;;;;;;12.88;2.72;;;4.60;99.90;;;;;;5110503;28;20225;-44
2020/12/01 09:21:53;;;;;;;9.60;2.63;;;4.70;99.90;;;;;;5090496;28;20043;-43
2020/12/01 09:24:23;;;;;;;14.57;2.22;;;4.80;99.90;;;;;;5095463;28;20530;-43
2020/12/01 09:27:04;;;;;;;10.65;2.00;;;4.90;99.90;;;;;;5110784;28;20036;-43
2020/12/01 09:29:30;;;;;;;15.45;2.70;;;4.90;99.90;;;;;;5090347;28;20043;-44
2020/12/01 09:31:56;;;;;;;12.85;2.78;;;4.90;99.90;;;;;;5090261;28;20055;-47
2020/12/01 09:34:22;;;;;;;20.73;2.65;;;5.00;99.90;;;;;;5110553;28;20565;-43
2020/12/01 09:36:48;;;;;;;9.00;2.30;;;5.00;99.90;;;;;;5097364;28;20138;-44
2020/12/01 09:39:13;;;;;;;8.75;2.67;;;5.10;99.90;;;;;;5110268;28;20552;-44
2020/12/01 09:41:44;;;;;;;15.23;3.33;;;5.10;99.90;;;;;;5109515;28;20027;-44
2020/12/01 09:44:49;;;;;;;15.32;3.75;;;5.20;99.90;;;;;;5108349;28;20039;-45
2020/12/01 09:47:06;;;;;;;20.10;4.45;;;5.20;99.90;;;;;;5101219;28;20050;-44
2020/12/01 09:49:31;;;;;;;19.73;4.78;;;5.30;99.90;;;;;;5110075;28;20089;-43
2020/12/01 09:52:03;;;;;;;18.95;4.57;;;5.40;99.90;;;;;;5089777;27;20040;-43
2020/12/01 09:54:38;;;;;;;15.98;3.20;;;5.50;99.90;;;;;;5100969;28;20472;-45
2020/12/01 09:57:13;;;;;;;22.33;3.92;;;5.60;99.90;;;;;;5102981;28;20494;-44
2020/12/01 09:59:46;;;;;;;17.90;3.30;;;5.60;99.90;;;;;;5102489;28;20028;-43
2020/12/01 10:16:21;;;;;;;15.90;2.90;;;6.10;99.90;;;;;;5109523;28;20149;-43
2020/12/01 10:34:28;;;;;;;17.65;3.05;;;6.70;99.90;;;;;;5089057;28;20057;-45
2020/12/01 10:36:55;;;;;;;20.90;2.90;;;6.70;99.90;;;;;;5102371;28;20139;-44
2020/12/01 10:39:21;;;;;;;28.38;3.60;;;6.80;99.90;;;;;;5087950;28;20062;-45
2020/12/01 10:41:47;;;;;;;18.52;3.17;;;6.90;99.90;;;;;;5095849;28;20051;-45
2020/12/01 10:44:13;;;;;;;12.65;2.40;;;7.00;99.90;;;;;;5089333;28;20119;-45
2020/12/01 10:46:39;;;;;;;17.95;2.75;;;7.10;99.90;;;;;;5091308;28;20032;-45
2020/12/01 10:49:05;;;;;;;18.15;2.85;;;7.20;99.90;;;;;;5085541;28;20038;-44
2020/12/01 10:51:32;;;;;;;19.73;3.10;;;7.20;99.90;;;;;;5098679;28;20020;-44
2020/12/01 10:53:59;;;;;;;36.72;3.58;;;7.20;99.90;;;;;;5100858;28;20457;-45
2020/12/01 10:56:24;;;;;;;20.38;3.38;;;7.30;99.90;;;;;;5112198;28;20023;-44
2020/12/01 10:58:50;;;;;;;22.13;3.85;;;7.30;99.90;;;;;;5103077;28;20044;-44
2020/12/01 11:01:16;;;;;;;21.27;3.88;;;7.30;99.90;;;;;;5091825;28;20040;-44
2020/12/01 11:03:41;;;;;;;20.95;5.03;;;7.50;99.90;;;;;;5107147;28;20052;-44
2020/12/01 11:06:08;;;;;;;16.92;4.35;;;7.50;99.90;;;;;;5111611;27;20027;-44
2020/12/01 11:08:33;;;;;;;23.55;3.70;;;7.60;99.90;;;;;;5110647;28;20032;-45
2020/12/01 11:10:59;;;;;;;22.77;3.33;;;7.70;99.90;;;;;;5112919;28;20023;-44
2020/12/01 11:13:25;;;;;;;17.98;3.05;;;7.70;99.90;;;;;;5113068;28;20458;-44
2020/12/01 11:15:51;;;;;;;25.75;5.03;;;7.80;99.90;;;;;;5103379;27;20034;-44
2020/12/01 11:18:16;;;;;;;11.30;2.25;;;7.80;99.90;;;;;;5112165;28;20075;-45
2020/12/01 11:20:42;;;;;;;22.88;3.88;;;7.80;99.90;;;;;;5108528;28;20032;-44
2020/12/01 11:23:08;;;;;;;18.00;2.80;;;7.80;99.90;;;;;;5102147;28;20063;-45
2020/12/01 11:25:34;;;;;;;24.52;3.97;;;7.90;99.90;;;;;;5111006;28;20466;-44
2020/12/01 11:27:59;;;;;;;21.65;3.80;;;8.00;99.90;;;;;;5101443;28;20039;-44
2020/12/01 11:30:26;;;;;;;17.52;3.03;;;8.10;99.90;;;;;;5106154;28;20114;-45
2020/12/01 11:32:52;;;;;;;17.98;3.08;;;8.20;99.90;;;;;;5101377;28;20036;-45
2020/12/01 11:35:21;;;;;;;20.50;3.25;;;8.20;99.90;;;;;;5096075;27;20016;-45
2020/12/01 11:37:47;;;;;;;18.23;3.47;;;8.30;99.90;;;;;;5098690;28;20051;-44
2020/12/01 11:40:16;;;;;;;17.77;3.67;;;8.40;99.90;;;;;;5103325;28;20119;-45
2020/12/01 11:42:42;;;;;;;19.00;4.50;;;8.50;99.90;;;;;;5099424;28;20419;-44
2020/12/01 11:45:10;;;;;;;20.65;4.10;;;8.70;99.90;;;;;;5098982;28;20028;-45
2020/12/01 11:47:36;;;;;;;30.83;3.97;;;9.00;99.90;;;;;;5103321;28;20024;-45
2020/12/01 11:50:03;;;;;;;25.55;4.00;;;9.20;99.90;;;;;;5112646;28;20031;-45
2020/12/01 11:52:31;;;;;;;18.48;3.97;;;9.20;99.90;;;;;;5099169;27;20358;-45
2020/12/01 11:54:56;;;;;;;25.05;3.83;;;9.30;99.90;;;;;;5111176;28;20137;-46
2020/12/01 11:57:22;;;;;;;26.10;5.28;;;9.40;99.90;;;;;;5111662;28;20040;-44
2020/12/01 11:59:48;;;;;;;22.50;4.18;;;9.50;99.90;;;;;;5103455;28;20024;-45
2020/12/01 12:02:13;;;;;;;23.20;3.90;;;9.50;99.90;;;;;;5101640;28;20068;-45
2020/12/01 12:04:39;;;;;;;20.08;4.05;;;9.40;99.90;;;;;;5096708;27;20020;-46
2020/12/01 12:07:05;;;;;;;28.10;3.80;;;9.50;99.90;;;;;;5096804;27;20035;-45
2020/12/01 12:09:31;;;;;;;23.05;3.05;;;9.70;99.90;;;;;;5097734;28;20396;-45
2020/12/01 12:11:56;;;;;;;17.15;2.90;;;10.00;99.90;;;;;;5105988;28;20046;-45
2020/12/01 12:14:22;;;;;;;17.02;3.40;;;10.20;99.90;;;;;;5104032;28;20561;-46
2020/12/01 12:16:48;;;;;;;15.15;2.85;;;10.30;99.90;;;;;;5110054;27;20400;-45
2020/12/01 12:19:13;;;;;;;13.43;3.20;;;10.30;99.90;;;;;;5110864;28;20050;-46
2020/12/01 12:21:39;;;;;;;19.45;3.50;;;10.30;99.90;;;;;;5104791;27;20031;-44
2020/12/01 12:24:05;;;;;;;20.55;3.75;;;10.50;99.90;;;;;;5108116;28;20115;-45
2020/12/01 12:26:30;;;;;;;20.17;3.15;;;10.60;99.90;;;;;;5108804;28;20039;-46
2020/12/01 12:28:56;;;;;;;11.85;3.55;;;10.80;99.90;;;;;;5110973;28;20031;-47
2020/12/01 12:31:22;;;;;;;19.70;3.65;;;10.90;99.90;;;;;;5099979;28;20040;-45
2020/12/01 12:33:47;;;;;;;19.88;3.45;;;11.10;99.90;;;;;;5093870;28;20032;-45
2020/12/01 12:36:13;;;;;;;16.13;3.22;;;11.10;99.90;;;;;;5090671;28;20103;-45
2020/12/01 12:38:40;;;;;;;19.23;3.28;;;10.60;99.90;;;;;;5110769;28;20058;-44
2020/12/01 12:41:06;;;;;;;34.92;5.45;;;10.50;99.90;;;;;;5110954;28;20045;-45
2020/12/01 12:43:32;;;;;;;28.45;3.65;;;10.80;99.90;;;;;;5110829;28;20525;-47
2020/12/01 12:45:58;;;;;;;36.38;4.35;;;11.10;99.90;;;;;;5111031;28;20114;-45
2020/12/01 12:48:26;;;;;;;16.63;2.90;;;11.20;99.90;;;;;;5111264;28;20567;-45
2020/12/01 12:50:52;;;;;;;15.00;3.15;;;11.40;99.90;;;;;;5110757;28;20067;-45
2020/12/01 12:53:18;;;;;;;22.63;3.67;;;11.50;99.90;;;;;;5102844;27;20545;-45
2020/12/01 12:55:44;;;;;;;17.20;2.92;;;11.30;99.90;;;;;;5110309;28;20487;-45
2020/12/01 12:58:10;;;;;;;28.50;4.88;;;11.40;99.90;;;;;;5110613;28;20044;-46
2020/12/01 13:00:36;;;;;;;13.35;3.22;;;11.60;99.90;;;;;;5110506;28;20067;-45
2020/12/01 13:03:02;;;;;;;16.48;3.45;;;11.60;99.90;;;;;;5099534;28;20359;-45
2020/12/01 13:05:29;;;;;;;20.13;4.45;;;11.50;99.90;;;;;;5108041;28;20505;-43
2020/12/01 13:07:56;;;;;;;16.80;3.22;;;11.40;99.90;;;;;;5103731;27;20126;-43
2020/12/01 13:10:22;;;;;;;19.30;3.22;;;11.50;99.90;;;;;;5102138;28;20032;-43
2020/12/01 13:12:48;;;;;;;16.90;3.33;;;11.70;99.90;;;;;;5094687;28;20027;-44
2020/12/01 13:15:15;;;;;;;16.20;3.17;;;11.60;99.90;;;;;;5100436;28;20482;-44
2020/12/01 13:17:41;;;;;;;21.55;3.40;;;11.00;99.90;;;;;;5100342;28;20043;-43
2020/12/01 13:20:12;;;;;;;11.07;2.47;;;10.80;99.90;;;;;;5101616;28;20042;-45
2020/12/01 13:22:38;;;;;;;21.17;3.22;;;10.80;99.90;;;;;;5102636;28;20040;-44
2020/12/01 13:25:04;;;;;;;28.10;4.28;;;10.90;99.90;;;;;;5100188;28;20063;-44
2020/12/01 13:27:29;;;;;;;22.23;3.97;;;10.70;99.90;;;;;;5099766;28;20027;-45
2020/12/01 13:29:55;;;;;;;20.60;3.50;;;10.30;99.90;;;;;;5094288;27;20052;-45
2020/12/01 13:32:22;;;;;;;22.65;3.40;;;10.20;99.90;;;;;;5096075;28;20024;-44
2020/12/01 13:34:48;;;;;;;15.43;2.78;;;10.20;99.90;;;;;;5108981;28;20473;-43
2020/12/01 13:37:13;;;;;;;23.95;3.40;;;10.10;99.90;;;;;;5103724;27;20055;-43
2020/12/01 13:39:39;;;;;;;14.38;2.65;;;9.90;99.90;;;;;;5101046;28;20031;-45
2020/12/01 13:42:05;;;;;;;19.48;3.95;;;9.70;99.90;;;;;;5089943;27;20040;-46
2020/12/01 13:44:31;;;;;;;16.77;3.22;;;9.60;99.90;;;;;;5096608;28;20032;-45
2020/12/01 13:46:56;;;;;;;25.38;3.40;;;9.60;99.90;;;;;;5095208;28;20477;-45
2020/12/01 13:49:22;;;;;;;21.98;3.47;;;9.50;99.90;;;;;;5106515;28;20039;-45